Terminal Aerodrome Forecast
Issued by NWS Duluth, MN

Home | Current Version | Previous Version | Text Only | Print | Product List | Glossary On
Versions: 1 2 3 4 5 6 7 8 9 10 11 12 13 14 15 16 17 18 19 20 21 22 23 24
000
FTUS43 KDLH 282300
TAFINL
TAF
KINL 282332Z 2900/2924 VRB05KT P6SM VCTS SCT015 BKN060CB
      TEMPO 2900/2902 VRB15G25KT 6SM TSRA BR OVC035CB
     FM290200 19008KT 6SM -SHRA SCT025 OVC040
      TEMPO 2902/2906 3SM TSRA BR BKN020CB OVC050
     FM290600 19005KT 6SM -SHRA BR VCTS OVC020CB
     FM291000 22005KT 6SM -SHRA BR VCTS OVC009CB
     FM291400 32010KT P6SM VCSH OVC010
     FM292000 33013G22KT P6SM BKN060=

USA.gov is the U.S. government's official web portal to all federal, state and local government web resources and services.